Cloud 9 — 2BRA3 — position and weather

sailwx.info

Track history (hours):
 
Tides and Currents Weather Stations Pressure Air Temp Water Temp Dewpoint Dewpoint Depression Visibility Wind Speed Wind Dir Waves Ship Positions

Cloud 9

Last reported at 2015-May-27 20:32 UTC. Time now 2015-May-29 12:15 UTC.
Position N 43°49' E 007°47'.

Length 60 m; draft 3.5 m.

Type: Other ship. MMSI: 235068579.

Date/timePositionNaut miles runAvg speedWind from/ knotsBaromVisibWave heightAir tempDewpointWater temp
2015-May-27 20:32N 43°49' E 007°47'0 0.0
2015-May-27 19:26N 43°49' E 007°47'0 0.0
2015-May-26 21:19N 43°49' E 007°47'0 0.0
2015-May-26 20:28N 43°49' E 007°47'0 0.0
2015-May-26 19:31N 43°49' E 007°47'0 0.0
2015-May-26 18:31N 43°49' E 007°47'0 0.0
2015-May-26 17:07N 43°49' E 007°47'5 1.0
2015-May-26 12:14N 43°49' E 007°54'5 2.6
2015-May-26 10:09N 43°47' E 007°48'2 0.2
2015-May-25 19:19N 43°49' E 007°47'0 0.0
2015-May-25 18:31N 43°49' E 007°47'0 0.0
2015-May-25 17:28N 43°49' E 007°47'0 0.0
2015-May-25 16:28N 43°49' E 007°47'0 0.0
2015-May-25 15:31N 43°49' E 007°47'0 0.0
2015-May-25 14:19N 43°49' E 007°47'0 0.0
2015-May-25 11:28N 43°49' E 007°47'0 0.0
2015-May-24 19:16N 43°49' E 007°47'0 0.0
2015-May-22 19:25N 43°49' E 007°47'0 0.0
2015-May-22 16:19N 43°49' E 007°47'0 0.0
2015-May-22 15:16N 43°49' E 007°47'21 0.8
2015-May-21 14:32N 43°41' E 007°21'0 0.0
2015-May-21 13:09N 43°41' E 007°21'0 0.0
2015-May-21 12:15N 43°41' E 007°21'0 0.0
2015-May-21 06:09N 43°41' E 007°21'0 0.0
2015-May-21 05:21N 43°41' E 007°21'0 0.0
2015-May-21 01:33N 43°41' E 007°21'0 0.0
2015-May-20 19:15N 43°41' E 007°21'0 0.0
2015-May-20 18:25N 43°41' E 007°21'8 9.3
2015-May-20 17:33N 43°35' E 007°14'9 8.0
2015-May-20 16:29N 43°31' E 007°04'0 0.0
2015-May-20 15:23N 43°32' E 007°04'0 0.0
2015-May-20 14:29N 43°31' E 007°04'0 0.0
2015-May-20 13:29N 43°31' E 007°04'6 6.2
2015-May-20 12:34N 43°33' E 007°11'4 4.3
2015-May-20 11:33N 43°37' E 007°10'8 3.7
2015-May-20 09:29N 43°32' E 007°03'0 0.0
2015-May-20 08:23N 43°32' E 007°03'0 0.0
2015-May-20 07:29N 43°32' E 007°03'0 0.0
2015-May-20 06:29N 43°32' E 007°03'0 0.0
2015-May-20 05:23N 43°32' E 007°03'0 0.0
2015-May-20 04:29N 43°32' E 007°03'0 0.0
2015-May-20 03:29N 43°32' E 007°03'0 0.0
2015-May-20 02:29N 43°32' E 007°03'0 0.0
2015-May-20 01:29N 43°32' E 007°03'0 0.0
2015-May-20 00:29N 43°32' E 007°03'0 0.0
2015-May-19 23:29N 43°32' E 007°03'0 0.0
2015-May-19 22:29N 43°32' E 007°03'0 0.0
2015-May-19 21:23N 43°32' E 007°03'0 0.0
2015-May-19 20:29N 43°32' E 007°03'0 0.0
2015-May-19 17:29N 43°32' E 007°03'0 0.0
2015-May-19 16:29N 43°32' E 007°03'0 0.0
2015-May-19 15:29N 43°32' E 007°03'1 1.4
2015-May-19 14:33N 43°32' E 007°05'35 2.1
2015-May-18 22:07N 43°49' E 007°47'0 0.0
2015-May-18 21:07N 43°49' E 007°47'0 0.0
2015-May-18 18:28N 43°49' E 007°47'0 0.0
2015-May-18 16:31N 43°49' E 007°47'  
Track history (hours):
 
Tides and Currents Weather Stations Pressure Air Temp Water Temp Dewpoint Dewpoint Depression Visibility Wind Speed Wind Dir Waves Ship Positions

Cloud 9

Last reported at 2015-May-27 20:32 UTC. Time now 2015-May-29 12:15 UTC.
Position N 43°49' E 007°47'.

Length 60 m; draft 3.5 m.

Type: Other ship. MMSI: 235068579.

Date/timePositionNaut miles runAvg speedWind from/ knotsBaromVisibWave heightAir tempDewpointWater temp
2015-May-27 20:32N 43°49' E 007°47'0 0.0
2015-May-27 19:26N 43°49' E 007°47'0 0.0
2015-May-26 21:19N 43°49' E 007°47'0 0.0
2015-May-26 20:28N 43°49' E 007°47'0 0.0
2015-May-26 19:31N 43°49' E 007°47'0 0.0
2015-May-26 18:31N 43°49' E 007°47'0 0.0
2015-May-26 17:07N 43°49' E 007°47'5 1.0
2015-May-26 12:14N 43°49' E 007°54'5 2.6
2015-May-26 10:09N 43°47' E 007°48'2 0.2
2015-May-25 19:19N 43°49' E 007°47'0 0.0
2015-May-25 18:31N 43°49' E 007°47'0 0.0
2015-May-25 17:28N 43°49' E 007°47'0 0.0
2015-May-25 16:28N 43°49' E 007°47'0 0.0
2015-May-25 15:31N 43°49' E 007°47'0 0.0
2015-May-25 14:19N 43°49' E 007°47'0 0.0
2015-May-25 11:28N 43°49' E 007°47'0 0.0
2015-May-24 19:16N 43°49' E 007°47'0 0.0
2015-May-22 19:25N 43°49' E 007°47'0 0.0
2015-May-22 16:19N 43°49' E 007°47'0 0.0
2015-May-22 15:16N 43°49' E 007°47'21 0.8
2015-May-21 14:32N 43°41' E 007°21'0 0.0
2015-May-21 13:09N 43°41' E 007°21'0 0.0
2015-May-21 12:15N 43°41' E 007°21'0 0.0
2015-May-21 06:09N 43°41' E 007°21'0 0.0
2015-May-21 05:21N 43°41' E 007°21'0 0.0
2015-May-21 01:33N 43°41' E 007°21'0 0.0
2015-May-20 19:15N 43°41' E 007°21'0 0.0
2015-May-20 18:25N 43°41' E 007°21'8 9.3
2015-May-20 17:33N 43°35' E 007°14'9 8.0
2015-May-20 16:29N 43°31' E 007°04'0 0.0
2015-May-20 15:23N 43°32' E 007°04'0 0.0
2015-May-20 14:29N 43°31' E 007°04'0 0.0
2015-May-20 13:29N 43°31' E 007°04'6 6.2
2015-May-20 12:34N 43°33' E 007°11'4 4.3
2015-May-20 11:33N 43°37' E 007°10'8 3.7
2015-May-20 09:29N 43°32' E 007°03'0 0.0
2015-May-20 08:23N 43°32' E 007°03'0 0.0
2015-May-20 07:29N 43°32' E 007°03'0 0.0
2015-May-20 06:29N 43°32' E 007°03'0 0.0
2015-May-20 05:23N 43°32' E 007°03'0 0.0
2015-May-20 04:29N 43°32' E 007°03'0 0.0
2015-May-20 03:29N 43°32' E 007°03'0 0.0
2015-May-20 02:29N 43°32' E 007°03'0 0.0
2015-May-20 01:29N 43°32' E 007°03'0 0.0
2015-May-20 00:29N 43°32' E 007°03'0 0.0
2015-May-19 23:29N 43°32' E 007°03'0 0.0
2015-May-19 22:29N 43°32' E 007°03'0 0.0
2015-May-19 21:23N 43°32' E 007°03'0 0.0
2015-May-19 20:29N 43°32' E 007°03'0 0.0
2015-May-19 17:29N 43°32' E 007°03'0 0.0
2015-May-19 16:29N 43°32' E 007°03'0 0.0
2015-May-19 15:29N 43°32' E 007°03'1 1.4
2015-May-19 14:33N 43°32' E 007°05'35 2.1
2015-May-18 22:07N 43°49' E 007°47'0 0.0
2015-May-18 21:07N 43°49' E 007°47'0 0.0
2015-May-18 18:28N 43°49' E 007°47'0 0.0
2015-May-18 16:31N 43°49' E 007°47'  

Dump ship's entire track history